Etusivu
METAR-TAF:

METAR-TAF

Lentoasemat :

Constantine, Algeria

Leveyspiiri: 36-17N, Pituuspiiri: 006-37E, korkeus merenpinnasta: 694 m

Tämänhetkinen sää

Tämä raportti tehtiin 50 minuuttia sitten, kello 08.00 UTC
Tuuli 2 kn eri suunnista
Lämpötila 28°C
Kosteus 30%
Ilmanpaine 1020 hPa
Näkyvyys 10 km tai enemmän
ei pilviä alle 1500 m:ssä eikä cumulonimbus-pilviä

METAR: DABC 140800Z VRB02KT CAVOK 28/09 Q1020

Aika: 09:50 (08:50 UTC)

Sääennuste

Tämä raportti tehtiin 3 tuntia ja 50 minuuttia sitten, kello 05.00 UTC
Ennuste voimassa 14. päivästä klo 06 UTC - 15. päivään klo 06 UTC
Tuuli 8 kn etelästä/lounaasta
Näkyvyys 10 km tai enemmän
ei pilviä alle 1500 m:ssä eikä cumulonimbus-pilviä
Todennäköisyys 30% :
Ajoittain
14. päivästä klo 12 UTC - 14. päivään klo 18 UTC
Muutamia pilviä 2600 ft:n korkeudessa, Kasvava cumulus-pilvi.

TAF: DABC 140500Z 1406/1506 20008KT CAVOK PROB30 TEMPO 1412/1418 FEW026TCU

Säähavainnot ja -ennusteet yli 4000 lentoasemalta (METAR- ja TAF-raportit).

Käytössä olevat sääasemat on merkitty karttaan keltaisilla ja punaisilla pisteillä.

Aseta hiiri pisteen päälle nähdäksesi sääaseman nimen.

Klikkaa sitten nähdäksesi säähavainnot ja -ennusteet.

Kartan vaihtaminen: klikkaa mustalla rastilla varustettuja vihreitä pisteitä, niin voit zoomata sisään; viivalla varustettua vihreää pistettä, niin voit zoomata ulos tai vihreitä nuolia, niin pääset viereisille kartoille.


METAR-TAF: